Time;durP1;ratioP1;P1;durP2;ratioP2;P2;SDS_P1;SDS_P2;PMS_P1;PMS_P2;Temp;Humidity;BMP_temperature;BMP_pressure;BME280_temperature;BME280_humidity;BME280_pressure;Samples;Min_cycle;Max_cycle;Signal;HPM_P1;HPM_P2
2023/01/12 00:02:00;;;;;;;0.50;0.10;;;8.70;99.90;;;;;;4808559;29;20504;-68
2023/01/12 00:04:29;;;;;;;0.50;0.20;;;8.70;99.90;;;;;;4823422;29;20549;-69
2023/01/12 00:06:57;;;;;;;0.70;0.63;;;8.70;99.90;;;;;;4823445;29;20453;-69
2023/01/12 00:09:25;;;;;;;1.00;0.77;;;8.70;99.90;;;;;;4835532;29;20546;-69
2023/01/12 00:11:53;;;;;;;0.80;0.50;;;8.70;99.90;;;;;;4823245;29;20895;-69
2023/01/12 00:14:21;;;;;;;0.60;0.40;;;8.70;99.90;;;;;;4823320;29;20457;-69
2023/01/12 00:16:50;;;;;;;0.50;0.10;;;8.70;99.90;;;;;;4823136;29;20826;-69
2023/01/12 00:19:19;;;;;;;0.93;0.50;;;8.70;99.90;;;;;;4823257;29;21039;-69
2023/01/12 00:21:57;;;;;;;0.67;0.27;;;8.70;99.90;;;;;;4823095;29;20453;-68
2023/01/12 00:24:27;;;;;;;0.50;0.10;;;8.80;99.90;;;;;;4822782;29;20468;-68
2023/01/12 00:26:56;;;;;;;0.77;0.30;;;8.80;99.90;;;;;;4823437;29;20464;-68
2023/01/12 00:29:25;;;;;;;1.37;0.90;;;8.80;99.90;;;;;;4823405;29;20473;-68
2023/01/12 00:31:55;;;;;;;0.50;0.20;;;8.70;99.90;;;;;;4822735;29;21184;-67
2023/01/12 00:34:24;;;;;;;0.50;0.17;;;8.80;99.90;;;;;;4823726;29;20460;-68
2023/01/12 00:36:54;;;;;;;0.70;0.30;;;8.80;99.90;;;;;;4823665;29;20515;-68
2023/01/12 00:39:22;;;;;;;1.00;0.40;;;8.80;99.90;;;;;;4824581;29;20493;-68
2023/01/12 00:47:22;;;;;;;0.60;0.30;;;8.80;99.90;;;;;;4827707;29;20944;-68
2023/01/12 00:49:50;;;;;;;0.60;0.30;;;8.80;99.90;;;;;;4826501;29;20477;-68
2023/01/12 00:52:20;;;;;;;0.70;0.40;;;8.80;99.90;;;;;;4826514;29;21316;-68
2023/01/12 00:54:58;;;;;;;2.50;1.50;;;8.80;99.90;;;;;;4826552;29;20495;-69
2023/01/12 00:57:26;;;;;;;1.10;0.50;;;;;;;;;;4826426;29;20981;-68
2023/01/12 00:59:56;;;;;;;2.10;0.60;;;8.80;99.90;;;;;;4826459;29;20463;-68
2023/01/12 05:02:21;;;;;;;0.60;0.20;;;9.70;99.90;;;;;;5055793;23;20510;-72
2023/01/12 05:04:49;;;;;;;4.43;0.30;;;9.60;99.90;;;;;;4821083;29;20959;-72
2023/01/12 05:07:17;;;;;;;4.40;1.90;;;9.60;99.90;;;;;;4835282;29;20463;-72
2023/01/12 05:12:30;;;;;;;0.50;0.10;;;9.70;99.90;;;;;;4827649;29;20477;-74
2023/01/12 05:14:58;;;;;;;0.50;0.10;;;9.50;99.90;;;;;;4847700;23;20500;-66
2023/01/12 05:17:27;;;;;;;0.50;0.10;;;9.50;99.90;;;;;;4840631;29;20490;-68
2023/01/12 05:19:56;;;;;;;4.60;0.67;;;9.60;99.90;;;;;;4840787;29;20463;-67
2023/01/12 05:22:27;;;;;;;0.50;0.10;;;9.60;99.90;;;;;;4841224;29;20443;-68
2023/01/12 05:24:55;;;;;;;0.50;0.10;;;9.60;99.90;;;;;;4837046;29;20987;-69
2023/01/12 05:27:22;;;;;;;0.50;0.10;;;9.60;99.90;;;;;;4837202;29;20535;-67
2023/01/12 05:29:51;;;;;;;0.50;0.10;;;9.70;99.90;;;;;;4840855;29;20452;-66
2023/01/12 05:32:19;;;;;;;0.50;0.10;;;9.70;99.90;;;;;;4831734;29;20494;-68
2023/01/12 05:34:48;;;;;;;22.00;10.80;;;9.70;99.90;;;;;;4843219;29;20471;-67
2023/01/12 05:37:16;;;;;;;0.50;0.10;;;9.80;99.90;;;;;;4841262;29;20504;-67
2023/01/12 05:39:44;;;;;;;0.50;0.20;;;9.70;99.90;;;;;;4835549;29;20570;-67
2023/01/12 05:45:06;;;;;;;2.40;0.50;;;9.70;99.90;;;;;;4800958;29;20485;-69
2023/01/12 05:47:34;;;;;;;1.43;0.80;;;9.70;99.90;;;;;;4825724;29;20446;-66
2023/01/12 05:50:05;;;;;;;0.50;0.10;;;9.60;99.90;;;;;;4823911;29;20944;-67
2023/01/12 05:52:32;;;;;;;0.50;0.10;;;9.70;99.90;;;;;;4824911;29;20457;-68
2023/01/12 05:55:00;;;;;;;0.50;0.10;;;9.70;99.90;;;;;;4829064;29;20521;-66
2023/01/12 05:57:29;;;;;;;0.60;0.40;;;9.70;99.90;;;;;;4829854;29;20489;-67
2023/01/12 05:59:57;;;;;;;0.70;0.30;;;9.70;99.90;;;;;;4826307;29;20461;-66
2023/01/12 06:02:25;;;;;;;0.80;0.47;;;9.60;99.90;;;;;;4822855;29;20499;-65
2023/01/12 06:04:53;;;;;;;0.50;0.10;;;9.60;99.90;;;;;;4822210;29;20504;-67
2023/01/12 06:07:22;;;;;;;0.50;0.17;;;9.60;99.90;;;;;;4823418;29;20884;-69
2023/01/12 06:09:50;;;;;;;1.03;0.57;;;9.70;99.90;;;;;;4835191;29;20820;-68
2023/01/12 06:15:03;;;;;;;2.13;1.60;;;9.60;99.90;;;;;;4801942;29;20489;-67
2023/01/12 06:17:31;;;;;;;2.80;0.50;;;;;;;;;;4824376;29;20492;-67
2023/01/12 06:19:59;;;;;;;0.60;0.53;;;9.50;99.90;;;;;;4824408;29;20505;-67
2023/01/12 06:22:28;;;;;;;0.60;0.23;;;9.60;99.90;;;;;;4824237;29;20492;-68
2023/01/12 06:24:56;;;;;;;0.50;0.10;;;9.60;99.90;;;;;;4824613;29;20485;-66
2023/01/12 06:27:23;;;;;;;0.50;0.10;;;9.60;99.90;;;;;;4833925;29;20466;-66
2023/01/12 06:29:51;;;;;;;1.03;0.30;;;9.60;99.90;;;;;;4837289;29;20457;-67
2023/01/12 06:32:19;;;;;;;3.70;3.33;;;9.60;99.90;;;;;;4828613;29;20878;-68
2023/01/12 06:34:47;;;;;;;0.50;0.10;;;9.60;99.90;;;;;;4831561;29;20581;-68
2023/01/12 06:37:15;;;;;;;0.50;0.20;;;9.60;99.90;;;;;;4840000;29;20510;-67
2023/01/12 06:39:44;;;;;;;0.50;0.10;;;9.60;99.90;;;;;;4843203;29;20517;-67
2023/01/12 06:42:31;;;;;;;0.50;0.10;;;9.60;99.90;;;;;;4842560;29;20448;-66
2023/01/12 06:45:02;;;;;;;0.63;0.40;;;9.60;99.90;;;;;;4832668;29;20911;-68
2023/01/12 06:47:30;;;;;;;0.50;0.10;;;9.50;99.90;;;;;;4824099;29;20794;-67
2023/01/12 06:49:58;;;;;;;0.50;0.20;;;9.50;99.90;;;;;;4824221;29;20977;-65
2023/01/12 06:52:28;;;;;;;0.70;0.53;;;9.50;99.90;;;;;;4824294;29;20461;-67
2023/01/12 06:54:58;;;;;;;0.53;0.30;;;9.50;99.90;;;;;;4824000;29;20477;-67
2023/01/12 06:57:25;;;;;;;0.50;0.10;;;9.40;99.90;;;;;;4823753;29;21019;-67
2023/01/12 06:59:55;;;;;;;2.20;1.03;;;9.40;99.90;;;;;;4826526;29;20901;-69
2023/01/12 07:02:23;;;;;;;2.50;0.90;;;9.40;99.90;;;;;;4838240;29;20457;-66
2023/01/12 07:04:50;;;;;;;0.50;0.10;;;9.30;99.90;;;;;;4833905;29;20999;-68
2023/01/12 07:07:18;;;;;;;0.50;0.20;;;9.40;99.90;;;;;;4835601;29;20452;-67
2023/01/12 07:09:46;;;;;;;0.50;0.10;;;9.40;99.90;;;;;;4837355;29;20449;-67
2023/01/12 07:12:16;;;;;;;0.50;0.30;;;;;;;;;;4841416;29;20460;-69
2023/01/12 07:14:44;;;;;;;0.50;0.10;;;;;;;;;;4827639;29;20630;-68
2023/01/12 07:17:12;;;;;;;0.50;0.10;;;9.40;99.90;;;;;;4823102;29;20493;-70
2023/01/12 07:19:40;;;;;;;0.50;0.20;;;9.40;99.90;;;;;;4821238;29;20472;-69
2023/01/12 07:22:08;;;;;;;0.50;0.20;;;9.40;99.90;;;;;;4824790;29;20465;-68
2023/01/12 07:24:36;;;;;;;3.63;1.53;;;9.50;99.90;;;;;;4825580;29;20509;-69
2023/01/12 07:27:04;;;;;;;0.50;0.10;;;9.50;99.90;;;;;;4823755;29;20841;-68
2023/01/12 07:29:33;;;;;;;0.53;0.20;;;9.50;99.90;;;;;;4823657;29;20457;-67
2023/01/12 07:32:01;;;;;;;0.50;0.10;;;9.40;99.90;;;;;;4827487;29;20464;-66
2023/01/12 07:34:29;;;;;;;0.60;0.30;;;9.50;99.90;;;;;;4835622;29;20484;-69
2023/01/12 07:36:57;;;;;;;0.50;0.20;;;9.40;99.90;;;;;;4825380;29;20859;-69
2023/01/12 07:39:25;;;;;;;0.50;0.20;;;9.50;99.90;;;;;;4823597;29;20453;-68
2023/01/12 07:44:40;;;;;;;0.50;0.10;;;9.40;99.90;;;;;;4822836;29;20485;-67
2023/01/12 07:47:08;;;;;;;0.50;0.17;;;9.40;99.90;;;;;;4823372;29;20488;-69
2023/01/12 07:49:36;;;;;;;4.40;2.17;;;9.40;99.90;;;;;;4823282;29;20457;-67
2023/01/12 07:52:04;;;;;;;1.20;1.10;;;9.40;99.90;;;;;;4823019;29;20450;-66
2023/01/12 07:54:32;;;;;;;0.50;0.10;;;9.40;99.90;;;;;;4822214;29;20829;-69
2023/01/12 07:57:00;;;;;;;0.50;0.10;;;9.40;99.90;;;;;;4822306;29;20481;-69
2023/01/12 07:59:28;;;;;;;0.50;0.10;;;9.40;99.90;;;;;;4822707;29;20445;-69
2023/01/12 08:01:57;;;;;;;0.50;0.10;;;9.40;99.90;;;;;;4824693;29;20972;-69
2023/01/12 08:04:27;;;;;;;2.30;1.40;;;9.30;99.90;;;;;;4841013;29;20468;-70
2023/01/12 08:06:55;;;;;;;2.20;0.40;;;9.30;99.90;;;;;;4828934;29;20465;-69
2023/01/12 08:09:24;;;;;;;0.70;0.20;;;9.30;99.90;;;;;;4834930;29;21028;-67
2023/01/12 08:11:51;;;;;;;0.50;0.10;;;9.30;99.90;;;;;;4840885;29;20453;-69
2023/01/12 08:14:26;;;;;;;0.50;0.10;;;9.30;99.90;;;;;;4839360;29;20490;-68
2023/01/12 08:17:00;;;;;;;0.50;0.10;;;9.30;99.90;;;;;;4832063;29;20460;-68
2023/01/12 08:19:37;;;;;;;0.50;0.10;;;9.30;99.90;;;;;;4841020;29;20466;-68
2023/01/12 08:22:09;;;;;;;0.50;0.10;;;9.30;1.00;;;;;;4827786;29;20469;-69
2023/01/12 08:24:44;;;;;;;0.70;0.30;;;9.30;1.00;;;;;;4830736;29;20542;-68
2023/01/12 08:27:12;;;;;;;0.70;0.33;;;9.20;1.00;;;;;;4822887;29;20468;-70
2023/01/12 08:29:44;;;;;;;0.50;0.10;;;9.20;1.00;;;;;;4827819;29;20633;-68
2023/01/12 08:32:16;;;;;;;0.50;0.10;;;9.30;1.00;;;;;;4832126;29;20544;-68
2023/01/12 08:34:46;;;;;;;0.50;0.20;;;9.20;1.00;;;;;;4823626;29;21048;-68
2023/01/12 08:37:18;;;;;;;0.50;0.10;;;9.20;1.00;;;;;;4838786;29;20871;-67
2023/01/12 08:39:47;;;;;;;0.60;0.20;;;9.20;1.00;;;;;;4823284;29;20563;-67
2023/01/12 08:42:15;;;;;;;4.67;0.47;;;9.20;1.00;;;;;;4830679;29;20461;-67
2023/01/12 08:44:43;;;;;;;0.50;0.10;;;9.10;1.00;;;;;;4833756;29;21014;-67
2023/01/12 08:47:20;;;;;;;2.07;1.53;;;9.10;1.00;;;;;;4841169;29;21126;-69
2023/01/12 08:49:48;;;;;;;0.60;0.40;;;9.20;1.00;;;;;;4835706;29;20455;-70
2023/01/12 08:52:16;;;;;;;0.50;0.10;;;9.10;1.00;;;;;;4835962;29;20494;-69
2023/01/12 08:54:44;;;;;;;0.50;0.10;;;9.10;1.00;;;;;;4832174;29;20508;-68
2023/01/12 08:57:14;;;;;;;0.80;0.57;;;;;;;;;;4830198;29;20476;-66
2023/01/12 08:59:43;;;;;;;0.80;0.40;;;9.10;1.00;;;;;;4835510;29;20468;-69
2023/01/12 09:02:11;;;;;;;0.70;0.30;;;9.10;1.00;;;;;;4829102;29;20975;-67
2023/01/12 09:04:41;;;;;;;0.50;0.10;;;9.10;1.00;;;;;;4832709;29;20478;-67
2023/01/12 09:07:10;;;;;;;0.50;0.10;;;9.10;1.00;;;;;;4830495;29;20457;-69
2023/01/12 09:09:38;;;;;;;0.50;0.20;;;9.10;1.00;;;;;;4837732;29;20464;-68
2023/01/12 09:12:07;;;;;;;1.20;1.03;;;9.20;1.00;;;;;;4835408;29;20485;-67
2023/01/12 09:14:37;;;;;;;0.50;0.10;;;9.20;1.00;;;;;;4840042;29;20914;-68
2023/01/12 09:17:06;;;;;;;0.60;0.30;;;9.20;1.00;;;;;;4807074;29;20450;-68
2023/01/12 09:19:34;;;;;;;0.50;0.10;;;9.20;1.00;;;;;;4807927;29;20496;-69
2023/01/12 09:22:03;;;;;;;0.50;0.10;;;9.20;1.00;;;;;;4816812;29;20461;-68
2023/01/12 09:24:31;;;;;;;0.50;0.10;;;9.10;1.00;;;;;;4833979;29;20483;-67
2023/01/12 09:27:00;;;;;;;0.50;0.10;;;9.20;1.00;;;;;;4844291;29;20448;-67
2023/01/12 09:29:27;;;;;;;0.50;0.20;;;9.20;1.00;;;;;;4838244;29;20449;-69
2023/01/12 09:31:55;;;;;;;0.60;0.30;;;9.20;1.00;;;;;;4824609;29;20517;-68
2023/01/12 09:34:23;;;;;;;0.60;0.20;;;9.10;1.00;;;;;;4827090;29;20465;-67
2023/01/12 09:36:52;;;;;;;0.50;0.10;;;9.10;1.00;;;;;;4829979;29;20450;-68
2023/01/12 09:39:21;;;;;;;0.50;0.10;;;9.10;1.00;;;;;;4825043;29;21083;-68
2023/01/12 09:47:35;;;;;;;0.50;0.10;;;9.10;1.00;;;;;;4826845;29;20454;-67
2023/01/12 09:50:08;;;;;;;0.50;0.10;;;9.20;1.00;;;;;;4824668;29;20457;-67
2023/01/12 09:52:41;;;;;;;0.50;0.20;;;9.20;1.00;;;;;;4824753;29;20457;-68
2023/01/12 09:55:16;;;;;;;0.50;0.10;;;9.20;1.00;;;;;;4825205;29;20485;-68
2023/01/12 09:58:00;;;;;;;2.97;0.80;;;9.20;1.00;;;;;;4825278;29;20463;-68
2023/01/12 10:00:28;;;;;;;2.33;2.23;;;9.20;1.00;;;;;;4824727;29;20449;-66
2023/01/12 10:03:07;;;;;;;0.50;0.10;;;9.20;1.00;;;;;;4824895;29;20537;-66
2023/01/12 10:05:40;;;;;;;0.50;0.10;;;9.30;1.00;;;;;;4828683;29;20461;-67
2023/01/12 10:08:18;;;;;;;0.50;0.10;;;9.30;1.00;;;;;;4827157;29;20452;-68
2023/01/12 10:11:11;;;;;;;1.47;0.80;;;9.40;1.00;;;;;;4842055;29;20495;-67
2023/01/12 10:14:09;;;;;;;0.50;0.20;;;9.40;1.00;;;;;;4806864;29;21083;-67
2023/01/12 10:16:47;;;;;;;0.50;0.20;;;9.40;1.00;;;;;;4809798;29;20465;-69
2023/01/12 10:19:23;;;;;;;0.50;0.10;;;9.40;1.00;;;;;;4837784;29;20852;-67
2023/01/12 10:21:52;;;;;;;0.50;0.10;;;9.40;1.00;;;;;;4835837;29;20453;-68
2023/01/12 10:24:23;;;;;;;0.60;0.40;;;9.40;1.00;;;;;;4824505;29;20473;-67
2023/01/12 10:26:59;;;;;;;0.53;0.23;;;9.40;1.00;;;;;;4824776;29;20453;-67
2023/01/12 10:29:28;;;;;;;0.50;0.10;;;9.40;1.00;;;;;;4824566;29;20510;-70
2023/01/12 10:31:56;;;;;;;0.50;0.20;;;9.40;1.00;;;;;;4823732;29;20461;-67
2023/01/12 10:34:23;;;;;;;0.50;0.10;;;9.40;1.00;;;;;;4823594;29;20473;-68
2023/01/12 10:36:57;;;;;;;0.50;0.17;;;9.50;1.00;;;;;;4827963;29;20445;-70
2023/01/12 10:39:31;;;;;;;0.50;0.10;;;9.50;1.00;;;;;;4824025;29;20538;-69
2023/01/12 10:45:13;;;;;;;0.50;0.10;;;9.50;1.00;;;;;;4827421;29;20479;-68
2023/01/12 10:47:41;;;;;;;0.60;0.10;;;9.50;1.00;;;;;;4840260;29;20463;-68
2023/01/12 10:50:26;;;;;;;0.50;0.20;;;9.50;1.00;;;;;;4836286;29;20453;-67
2023/01/12 10:52:58;;;;;;;0.60;0.30;;;9.60;1.00;;;;;;4824078;29;20824;-68
2023/01/12 10:55:31;;;;;;;0.50;0.20;;;9.60;1.00;;;;;;4822802;29;20470;-69
2023/01/12 10:58:00;;;;;;;2.20;1.70;;;9.60;1.00;;;;;;4822416;29;20474;-67
2023/01/12 11:00:29;;;;;;;0.50;0.20;;;9.60;1.00;;;;;;4824765;29;20497;-67
2023/01/12 11:02:57;;;;;;;0.50;0.10;;;9.60;1.00;;;;;;4831833;29;20464;-66
2023/01/12 11:05:32;;;;;;;0.50;0.10;;;9.60;1.00;;;;;;4839610;29;20472;-67
2023/01/12 11:08:01;;;;;;;0.60;0.30;;;9.60;1.00;;;;;;4809324;29;20464;-66
2023/01/12 11:10:30;;;;;;;0.50;0.10;;;9.60;1.00;;;;;;4837324;29;20508;-68
2023/01/12 11:13:02;;;;;;;1.70;0.63;;;9.60;1.00;;;;;;4833110;29;20551;-68
2023/01/12 11:15:34;;;;;;;2.23;1.40;;;9.50;1.00;;;;;;4850573;23;20596;-73
2023/01/12 11:18:28;;;;;;;0.50;0.10;;;9.50;1.00;;;;;;4844822;29;21219;-73
2023/01/12 11:21:00;;;;;;;0.50;0.20;;;9.50;1.00;;;;;;4838371;29;20453;-72
2023/01/12 11:23:32;;;;;;;1.00;0.60;;;9.40;1.00;;;;;;4839524;29;20461;-72
2023/01/12 11:26:04;;;;;;;0.50;0.20;;;9.30;1.00;;;;;;4826384;29;20500;-72
2023/01/12 11:28:39;;;;;;;0.67;0.20;;;9.40;1.00;;;;;;4841967;29;20461;-73
2023/01/12 11:31:12;;;;;;;1.23;0.80;;;9.40;1.00;;;;;;4829122;29;20464;-73
2023/01/12 11:33:44;;;;;;;2.03;1.83;;;9.30;1.00;;;;;;4833621;29;20469;-72
2023/01/12 11:36:17;;;;;;;13.40;3.60;;;9.30;1.00;;;;;;4843524;29;20463;-73
2023/01/12 11:38:47;;;;;;;0.70;0.53;;;9.30;1.00;;;;;;4837667;29;20457;-73
2023/01/12 11:41:22;;;;;;;0.50;0.10;;;9.30;1.00;;;;;;4844713;29;20819;-73
2023/01/12 11:44:05;;;;;;;0.50;0.30;;;9.30;1.00;;;;;;4843927;29;20462;-73
2023/01/12 11:46:38;;;;;;;0.50;0.30;;;9.30;1.00;;;;;;4843768;29;20461;-73
2023/01/12 11:49:12;;;;;;;0.50;0.30;;;9.30;1.00;;;;;;4843442;29;20539;-71
2023/01/12 11:51:41;;;;;;;0.50;0.20;;;9.40;1.00;;;;;;4843387;29;20467;-71
2023/01/12 11:54:14;;;;;;;0.70;0.33;;;9.30;1.00;;;;;;4842700;29;21129;-71
2023/01/12 11:57:09;;;;;;;0.50;0.20;;;9.40;1.00;;;;;;4844091;29;20452;-73
2023/01/12 11:59:46;;;;;;;0.60;0.50;;;9.40;1.00;;;;;;4843440;29;21027;-72
2023/01/12 12:02:31;;;;;;;0.50;0.10;;;9.50;1.00;;;;;;4843507;29;20440;-74
2023/01/12 12:05:06;;;;;;;0.50;0.20;;;;;;;;;;4843834;29;20480;-73
2023/01/12 12:07:49;;;;;;;0.50;0.10;;;9.70;1.00;;;;;;4844788;29;20574;-73
2023/01/12 12:10:22;;;;;;;0.50;0.20;;;9.60;1.00;;;;;;4809084;29;20477;-77
2023/01/12 12:13:11;;;;;;;0.50;0.10;;;9.60;1.00;;;;;;4814293;29;20529;-73
2023/01/12 12:15:47;;;;;;;0.50;0.10;;;9.70;1.00;;;;;;4813373;29;20519;-73
2023/01/12 12:18:26;;;;;;;0.50;0.10;;;9.70;1.00;;;;;;4810280;29;20483;-73
2023/01/12 12:21:08;;;;;;;0.50;0.10;;;9.70;1.00;;;;;;4809084;29;20494;-73
2023/01/12 12:23:46;;;;;;;0.50;0.10;;;9.70;1.00;;;;;;4809229;29;20459;-73
2023/01/12 12:26:20;;;;;;;0.50;0.20;;;9.70;1.00;;;;;;4812395;29;20453;-73
2023/01/12 12:29:01;;;;;;;0.60;0.40;;;9.70;1.00;;;;;;4812117;29;20473;-74
2023/01/12 12:31:49;;;;;;;0.50;0.10;;;9.70;1.00;;;;;;4809191;29;20497;-73
2023/01/12 12:34:46;;;;;;;0.50;0.10;;;9.70;1.00;;;;;;4807666;29;20466;-74
2023/01/12 12:37:40;;;;;;;2.93;0.27;;;9.60;1.00;;;;;;4810864;29;20458;-71
2023/01/12 12:40:20;;;;;;;0.50;0.10;;;9.50;1.00;;;;;;4808987;29;20500;-74
2023/01/12 12:45:56;;;;;;;1.43;1.33;;;9.50;1.00;;;;;;4811051;29;20489;-73
2023/01/12 12:48:31;;;;;;;0.50;0.10;;;9.60;1.00;;;;;;4811316;29;20457;-72
2023/01/12 12:51:05;;;;;;;0.50;0.10;;;9.50;1.00;;;;;;4810929;29;20606;-73
2023/01/12 12:53:36;;;;;;;0.50;0.10;;;9.50;1.00;;;;;;4811024;29;20495;-72
2023/01/12 12:56:06;;;;;;;0.50;0.17;;;9.50;1.00;;;;;;4811911;29;20486;-73
2023/01/12 12:58:40;;;;;;;0.50;0.20;;;9.60;1.00;;;;;;4810471;29;20961;-73
2023/01/12 13:01:41;;;;;;;0.50;0.10;;;9.50;1.00;;;;;;4810498;29;20507;-72
2023/01/12 13:04:14;;;;;;;0.50;0.30;;;9.50;1.00;;;;;;4772585;30;20468;-74
2023/01/12 13:06:47;;;;;;;0.50;0.10;;;9.50;1.00;;;;;;4804159;29;20462;-73
2023/01/12 13:09:39;;;;;;;1.73;0.97;;;9.50;1.00;;;;;;4833461;29;20448;-73
2023/01/12 13:12:32;;;;;;;0.60;0.20;;;9.60;1.00;;;;;;4833652;29;20458;-74
2023/01/12 13:15:23;;;;;;;0.50;0.20;;;9.60;1.00;;;;;;4840888;29;21011;-73
2023/01/12 13:17:53;;;;;;;0.50;0.10;;;9.60;1.00;;;;;;4843915;29;20470;-73
2023/01/12 13:20:49;;;;;;;0.50;0.20;;;9.70;1.00;;;;;;4847552;29;20488;-72
2023/01/12 13:23:46;;;;;;;0.50;0.20;;;9.70;1.00;;;;;;4846552;29;20460;-72
2023/01/12 13:26:42;;;;;;;0.50;0.10;;;9.70;1.00;;;;;;4846881;29;20593;-72
2023/01/12 13:29:39;;;;;;;9.93;0.70;;;9.70;1.00;;;;;;4847683;29;20460;-73
2023/01/12 13:32:31;;;;;;;0.70;0.30;;;9.70;1.00;;;;;;4837656;29;20580;-73
2023/01/12 13:34:59;;;;;;;0.50;0.10;;;9.70;1.00;;;;;;4847811;29;20473;-72
2023/01/12 13:37:38;;;;;;;0.50;0.10;;;9.70;1.00;;;;;;4847797;29;20964;-72
2023/01/12 13:40:16;;;;;;;0.50;0.10;;;9.80;1.00;;;;;;4847307;29;20524;-73
2023/01/12 13:45:32;;;;;;;1.17;0.33;;;9.70;1.00;;;;;;4847516;29;20508;-73
2023/01/12 13:48:00;;;;;;;0.50;0.10;;;9.80;1.00;;;;;;4847714;29;20997;-72
2023/01/12 13:50:28;;;;;;;2.30;0.93;;;9.80;1.00;;;;;;4847298;29;20448;-71
2023/01/12 13:52:59;;;;;;;3.40;0.73;;;9.80;1.00;;;;;;4845969;29;20867;-73
2023/01/12 13:55:29;;;;;;;0.50;0.10;;;9.90;1.00;;;;;;4849662;29;20479;-73
2023/01/12 13:57:59;;;;;;;0.90;0.90;;;9.90;1.00;;;;;;4850560;29;20448;-72
2023/01/12 14:00:30;;;;;;;0.50;0.10;;;9.90;1.00;;;;;;4850803;29;20488;-73
2023/01/12 14:02:59;;;;;;;0.50;0.20;;;10.00;1.00;;;;;;4852222;29;20441;-72
2023/01/12 14:05:54;;;;;;;1.13;0.60;;;10.00;1.00;;;;;;4848614;29;20477;-73
2023/01/12 14:08:51;;;;;;;0.50;0.10;;;10.00;1.00;;;;;;4848927;29;20474;-74
2023/01/12 14:11:44;;;;;;;0.50;0.10;;;10.00;1.00;;;;;;4847277;29;20504;-73
2023/01/12 14:20:17;;;;;;;0.50;0.10;;;10.00;1.00;;;;;;4849400;29;20544;-73
2023/01/12 14:22:45;;;;;;;2.67;2.33;;;10.00;1.00;;;;;;4849230;29;20459;-73
2023/01/12 14:25:17;;;;;;;0.50;0.10;;;10.10;1.00;;;;;;4849374;29;20465;-73
2023/01/12 14:27:52;;;;;;;0.50;0.10;;;10.10;1.00;;;;;;4848780;29;20459;-73
2023/01/12 14:30:20;;;;;;;0.50;0.10;;;10.10;1.00;;;;;;4848769;29;20547;-73
2023/01/12 14:32:57;;;;;;;0.50;0.27;;;10.20;1.00;;;;;;4848274;29;20463;-73
2023/01/12 14:35:26;;;;;;;0.50;0.20;;;10.20;1.00;;;;;;4848800;29;20486;-72
2023/01/12 14:37:57;;;;;;;0.50;0.20;;;10.20;1.00;;;;;;4847034;29;20530;-72
2023/01/12 14:40:31;;;;;;;0.70;0.37;;;10.30;1.00;;;;;;4845779;29;20495;-72
2023/01/12 14:48:42;;;;;;;0.90;0.43;;;10.20;1.00;;;;;;4846784;29;20491;-73
2023/01/12 14:51:21;;;;;;;0.50;0.20;;;10.20;1.00;;;;;;4849116;29;20456;-73
2023/01/12 14:53:55;;;;;;;0.50;0.10;;;10.30;1.00;;;;;;4848197;29;20456;-73
2023/01/12 14:56:28;;;;;;;0.50;0.10;;;10.30;1.00;;;;;;4848555;29;20455;-73
2023/01/12 14:59:12;;;;;;;0.50;0.10;;;10.30;1.00;;;;;;4851129;29;20456;-71
2023/01/12 15:01:41;;;;;;;0.50;0.10;;;10.30;1.00;;;;;;4849207;29;21106;-73
2023/01/12 15:04:16;;;;;;;0.50;0.10;;;10.30;1.00;;;;;;4848461;29;20480;-72
2023/01/12 15:06:45;;;;;;;0.60;0.30;;;10.30;1.00;;;;;;4848495;29;20496;-72
2023/01/12 15:09:28;;;;;;;0.50;0.10;;;10.30;1.00;;;;;;4848922;29;20800;-73
2023/01/12 15:11:59;;;;;;;0.50;0.20;;;10.30;1.00;;;;;;4846144;29;20860;-73
2023/01/12 15:14:28;;;;;;;0.50;0.10;;;10.40;1.00;;;;;;4845621;29;20846;-72
2023/01/12 15:28:04;;;;;;;0.50;0.10;;;10.40;1.00;;;;;;4844330;29;20956;-73
2023/01/12 15:30:37;;;;;;;0.50;0.10;;;10.50;1.00;;;;;;4833011;29;20552;-72
2023/01/12 15:33:06;;;;;;;0.50;0.10;;;10.50;1.00;;;;;;4845675;29;20457;-73
2023/01/12 15:35:34;;;;;;;0.50;0.10;;;10.50;1.00;;;;;;4845325;29;20479;-72
2023/01/12 15:38:02;;;;;;;0.50;0.20;;;10.50;1.00;;;;;;4844367;29;20460;-73
2023/01/12 15:40:30;;;;;;;0.50;0.10;;;10.50;1.00;;;;;;4844390;29;20493;-73
2023/01/12 15:42:58;;;;;;;0.50;0.10;;;10.50;1.00;;;;;;4844802;29;20460;-73
2023/01/12 15:45:34;;;;;;;0.50;0.10;;;10.50;1.00;;;;;;4845771;29;20477;-73
2023/01/12 15:48:03;;;;;;;0.50;0.10;;;10.50;1.00;;;;;;4846018;29;20546;-72
2023/01/12 15:50:31;;;;;;;0.70;0.30;;;10.50;1.00;;;;;;4845699;29;20457;-73
2023/01/12 15:53:00;;;;;;;0.50;0.10;;;10.50;1.00;;;;;;4845793;29;20464;-73
2023/01/12 15:55:30;;;;;;;0.50;0.10;;;10.50;1.00;;;;;;4845840;29;20635;-73
2023/01/12 15:57:57;;;;;;;0.97;0.80;;;10.50;1.00;;;;;;4846732;29;20555;-72
2023/01/12 16:00:25;;;;;;;0.80;0.30;;;10.50;1.00;;;;;;4844816;29;20444;-74
2023/01/12 16:02:54;;;;;;;0.50;0.10;;;10.50;1.00;;;;;;4846813;29;20488;-72
2023/01/12 16:05:25;;;;;;;0.60;0.20;;;10.40;1.00;;;;;;4847198;29;20468;-72
2023/01/12 16:07:53;;;;;;;0.50;0.10;;;10.50;1.00;;;;;;4854765;29;20464;-72
2023/01/12 16:10:21;;;;;;;0.50;0.10;;;10.50;1.00;;;;;;4855680;29;20466;-73
2023/01/12 16:12:49;;;;;;;0.50;0.10;;;10.50;1.00;;;;;;4849281;29;20456;-71
2023/01/12 16:15:19;;;;;;;0.50;0.10;;;10.60;1.00;;;;;;4844748;29;20496;-72
2023/01/12 16:17:47;;;;;;;0.50;0.10;;;10.60;1.00;;;;;;4845338;29;20538;-73
2023/01/12 16:20:18;;;;;;;0.50;0.10;;;10.60;1.00;;;;;;4845097;29;20551;-73
2023/01/12 16:22:47;;;;;;;0.50;0.10;;;10.60;1.00;;;;;;4844628;29;20493;-72
2023/01/12 16:25:15;;;;;;;0.50;0.20;;;10.60;1.00;;;;;;4844895;29;20479;-73
2023/01/12 16:27:44;;;;;;;0.50;0.10;;;10.60;1.00;;;;;;4844522;29;20940;-72
2023/01/12 16:30:15;;;;;;;0.50;0.10;;;10.60;1.00;;;;;;4844648;29;20464;-72
2023/01/12 16:32:45;;;;;;;0.50;0.10;;;10.60;1.00;;;;;;4845101;29;20452;-72
2023/01/12 16:35:14;;;;;;;0.50;0.10;;;10.60;1.00;;;;;;4846210;29;20523;-72
2023/01/12 16:37:43;;;;;;;0.50;0.10;;;10.60;1.00;;;;;;4844826;29;20948;-73
2023/01/12 16:40:12;;;;;;;0.50;0.20;;;10.60;99.90;;;;;;4844972;29;20471;-73
2023/01/12 16:42:40;;;;;;;0.50;0.10;;;10.50;99.90;;;;;;4845482;29;20487;-72
2023/01/12 16:45:09;;;;;;;0.60;0.40;;;10.60;99.90;;;;;;4846775;29;20856;-72
2023/01/12 16:47:37;;;;;;;0.50;0.10;;;10.60;99.90;;;;;;4847191;29;20955;-72
2023/01/12 16:50:06;;;;;;;0.50;0.10;;;10.50;99.90;;;;;;4848039;29;20460;-74
2023/01/12 16:52:35;;;;;;;0.50;0.10;;;;;;;;;;4850589;29;20460;-73
2023/01/12 16:55:05;;;;;;;0.50;0.23;;;;;;;;;;4846959;29;20465;-73
2023/01/12 16:57:33;;;;;;;0.50;0.10;;;10.60;99.90;;;;;;4844521;29;20519;-73
2023/01/12 17:00:01;;;;;;;0.50;0.10;;;10.60;99.90;;;;;;4844847;29;20456;-73
2023/01/12 17:02:30;;;;;;;0.50;0.10;;;10.60;99.90;;;;;;4844204;29;20484;-74
2023/01/12 17:04:59;;;;;;;0.90;0.20;;;10.50;99.90;;;;;;4844584;29;20464;-72
2023/01/12 17:07:27;;;;;;;0.50;0.10;;;10.50;99.90;;;;;;4844987;29;20505;-72
2023/01/12 17:09:56;;;;;;;0.50;0.10;;;10.50;99.90;;;;;;4844624;29;20453;-75
2023/01/12 17:12:25;;;;;;;0.50;0.10;;;10.50;99.90;;;;;;4845031;29;20552;-73
2023/01/12 17:14:53;;;;;;;0.50;0.10;;;10.60;99.90;;;;;;4859822;23;20505;-72
2023/01/12 17:17:21;;;;;;;0.77;0.77;;;10.60;99.90;;;;;;4822328;29;20808;-72
2023/01/12 17:19:49;;;;;;;0.57;0.27;;;;;;;;;;4822790;29;20549;-69
2023/01/12 17:22:17;;;;;;;6.67;2.00;;;10.60;99.90;;;;;;4822402;29;20520;-70
2023/01/12 17:24:45;;;;;;;1.03;0.40;;;10.60;99.90;;;;;;4821925;29;20850;-70
2023/01/12 17:27:13;;;;;;;0.50;0.20;;;10.60;99.90;;;;;;4822856;29;20454;-70
2023/01/12 17:29:43;;;;;;;0.50;0.10;;;10.60;99.90;;;;;;4826016;29;20960;-71
2023/01/12 17:32:11;;;;;;;0.50;0.10;;;10.60;99.90;;;;;;4826044;29;20518;-71
2023/01/12 17:34:39;;;;;;;0.50;0.10;;;;;;;;;;4825740;29;20477;-70
2023/01/12 17:37:07;;;;;;;0.50;0.10;;;10.50;99.90;;;;;;4825693;29;20495;-71
2023/01/12 17:39:38;;;;;;;0.50;0.10;;;10.50;99.90;;;;;;4825659;29;20461;-71
2023/01/12 17:45:09;;;;;;;0.50;0.10;;;10.60;99.90;;;;;;4769483;30;20490;-69
2023/01/12 17:47:37;;;;;;;1.13;0.57;;;;;;;;;;4769520;30;20831;-70
2023/01/12 17:50:06;;;;;;;0.50;0.20;;;10.60;99.90;;;;;;4794901;29;20500;-69
2023/01/12 17:52:34;;;;;;;0.50;0.10;;;10.50;99.90;;;;;;4825922;29;20793;-71
2023/01/12 17:55:02;;;;;;;0.50;0.10;;;10.50;1.00;;;;;;4825798;29;20523;-70
2023/01/12 17:57:31;;;;;;;0.50;0.10;;;10.40;1.00;;;;;;4825558;29;20467;-71
2023/01/12 17:59:58;;;;;;;0.50;0.20;;;10.40;1.00;;;;;;4825257;29;20453;-69
2023/01/12 18:02:28;;;;;;;0.80;0.30;;;10.30;1.00;;;;;;4825261;29;20485;-69
2023/01/12 18:04:55;;;;;;;0.50;0.10;;;10.40;1.00;;;;;;4825364;29;20985;-70
2023/01/12 18:07:23;;;;;;;0.50;0.10;;;10.40;1.00;;;;;;4825939;29;20788;-70
2023/01/12 18:09:51;;;;;;;0.50;0.10;;;10.40;1.00;;;;;;4841286;29;20479;-71
2023/01/12 18:12:20;;;;;;;0.50;0.10;;;10.30;1.00;;;;;;4845639;29;20468;-70
2023/01/12 18:14:48;;;;;;;0.60;0.30;;;10.30;1.00;;;;;;4845256;29;20485;-70
2023/01/12 18:17:16;;;;;;;0.70;0.40;;;10.30;1.00;;;;;;4845975;29;20456;-69
2023/01/12 18:19:45;;;;;;;0.50;0.10;;;10.30;1.00;;;;;;4845138;29;20459;-72
2023/01/12 18:22:13;;;;;;;0.80;0.30;;;10.30;1.00;;;;;;4844433;29;20548;-71
2023/01/12 18:24:41;;;;;;;1.33;0.37;;;10.30;1.00;;;;;;4844283;29;20476;-70